Time;durP1;ratioP1;P1;durP2;ratioP2;P2;SDS_P1;SDS_P2;PMS_P1;PMS_P2;Temp;Humidity;BMP_temperature;BMP_pressure;BME280_temperature;BME280_humidity;BME280_pressure;Samples;Min_cycle;Max_cycle;Signal;HPM_P1;HPM_P2
2021/10/06 00:02:01;;;;;;;1.45;1.00;;;;;;;11.77;91.32;96112.03;4986068;28;20054;-73
2021/10/06 00:04:29;;;;;;;2.08;1.10;;;;;;;11.76;91.30;96118.63;4986902;28;20042;-78
2021/10/06 00:06:55;;;;;;;1.80;1.20;;;;;;;11.81;91.36;96125.03;4986271;28;20062;-78
2021/10/06 00:09:22;;;;;;;1.48;1.27;;;;;;;11.81;91.27;96128.56;4986813;28;20061;-77
2021/10/06 00:11:48;;;;;;;1.48;1.13;;;;;;;11.82;91.29;96123.94;4985845;28;20050;-77
2021/10/06 00:14:15;;;;;;;1.77;1.30;;;;;;;11.85;91.26;96124.06;4986490;28;20057;-78
2021/10/06 00:16:43;;;;;;;1.98;1.30;;;;;;;11.89;90.94;96129.66;4986167;28;20053;-78
2021/10/06 00:19:09;;;;;;;1.73;1.33;;;;;;;11.89;90.75;96129.66;4985502;28;20054;-77
2021/10/06 00:21:36;;;;;;;1.90;1.33;;;;;;;11.90;90.11;96132.06;4986267;28;20058;-78
2021/10/06 00:24:02;;;;;;;2.78;1.40;;;;;;;11.89;90.32;96133.16;4985576;28;20057;-78
2021/10/06 00:26:29;;;;;;;3.45;1.45;;;;;;;11.90;90.61;96136.69;4986817;28;20417;-78
2021/10/06 00:28:55;;;;;;;2.60;1.65;;;;;;;11.86;90.36;96131.13;4985793;28;20050;-78
2021/10/06 00:31:22;;;;;;;1.92;1.15;;;;;;;11.84;90.95;96138.03;4986545;28;20051;-77
2021/10/06 00:33:50;;;;;;;1.92;1.30;;;;;;;11.81;90.73;96146.84;4985677;28;20675;-78
2021/10/06 00:36:17;;;;;;;2.20;1.42;;;;;;;11.79;90.96;96146.38;4986531;28;20050;-78
2021/10/06 00:38:43;;;;;;;3.38;1.20;;;;;;;11.77;91.47;96147.50;4985704;28;20053;-78
2021/10/06 00:41:09;;;;;;;3.75;1.80;;;;;;;11.76;91.42;96165.00;4986004;28;20050;-78
2021/10/06 00:43:36;;;;;;;1.58;1.35;;;;;;;11.79;91.85;96165.47;4986165;28;20050;-79
2021/10/06 00:46:03;;;;;;;2.70;1.50;;;;;;;11.79;91.90;96176.38;4985928;28;20062;-77
2021/10/06 00:48:29;;;;;;;2.08;1.30;;;;;;;11.80;91.75;96180.69;4986361;28;20124;-77
2021/10/06 00:50:57;;;;;;;1.83;1.42;;;;;;;11.82;91.40;96179.28;4985708;28;20054;-78
2021/10/06 00:53:25;;;;;;;4.88;1.50;;;;;;;11.89;90.77;96184.22;4986179;28;20050;-78
2021/10/06 00:55:52;;;;;;;3.08;1.33;;;;;;;11.89;90.53;96186.94;4985310;28;20054;-78
2021/10/06 00:58:19;;;;;;;2.58;1.35;;;;;;;11.88;90.18;96188.88;4986236;28;20054;-77
2021/10/06 01:00:45;;;;;;;2.85;1.40;;;;;;;11.86;89.61;96185.69;4985547;28;20050;-78
2021/10/06 01:03:12;;;;;;;2.58;1.60;;;;;;;11.86;89.94;96188.41;4985947;28;20050;-78
2021/10/06 01:05:38;;;;;;;5.85;1.50;;;;;;;11.88;89.74;96193.53;4985707;28;20050;-78
2021/10/06 01:08:07;;;;;;;2.75;1.40;;;;;;;11.87;89.59;96197.41;4985829;28;20523;-78
2021/10/06 01:10:34;;;;;;;1.60;1.42;;;;;;;11.87;89.46;96202.84;4985597;28;20054;-78
2021/10/06 01:13:01;;;;;;;1.80;1.30;;;;;;;11.89;88.87;96208.78;4985744;28;20455;-77
2021/10/06 01:15:28;;;;;;;4.22;1.50;;;;;;;11.86;88.76;96212.19;4986006;28;20053;-77
2021/10/06 01:17:54;;;;;;;3.55;1.33;;;;;;;11.86;89.24;96217.63;4985084;28;20540;-78
2021/10/06 01:20:21;;;;;;;2.75;1.20;;;;;;;11.86;89.42;96228.53;4985704;28;20054;-77
2021/10/06 01:22:49;;;;;;;2.60;1.40;;;;;;;11.92;89.59;96224.50;4985062;28;20497;-78
2021/10/06 01:25:17;;;;;;;2.75;1.50;;;;;;;11.93;88.58;96229.63;4985385;28;20069;-77
2021/10/06 01:27:45;;;;;;;3.90;1.15;;;;;;;11.94;88.30;96231.22;4985202;28;20520;-78
2021/10/06 01:30:14;;;;;;;2.97;1.10;;;;;;;12.00;88.31;96235.34;4984198;28;20054;-78
2021/10/06 01:32:43;;;;;;;1.90;1.10;;;;;;;11.96;87.30;96236.34;4985614;28;20050;-77
2021/10/06 01:35:12;;;;;;;2.97;1.17;;;;;;;11.84;86.70;96238.97;4984815;28;20053;-78
2021/10/06 01:37:40;;;;;;;2.58;1.00;;;;;;;11.82;87.31;96242.03;4985706;28;20115;-78
2021/10/06 01:40:11;;;;;;;2.15;1.17;;;;;;;11.83;87.34;96238.16;4983990;28;20073;-78
2021/10/06 01:42:37;;;;;;;2.88;1.60;;;;;;;11.84;87.95;96231.59;4985736;28;20050;-78
2021/10/06 01:45:05;;;;;;;5.65;1.60;;;;;;;11.90;88.23;96237.66;4984128;28;20050;-78
2021/10/06 01:47:31;;;;;;;3.83;1.55;;;;;;;11.91;87.16;96233.81;4986134;28;20057;-78
2021/10/06 01:49:59;;;;;;;3.33;1.10;;;;;;;11.89;86.91;96238.78;4981102;28;20057;-78
2021/10/06 01:52:26;;;;;;;1.70;1.30;;;;;;;11.90;87.21;96246.66;4985341;28;20066;-78
2021/10/06 01:54:53;;;;;;;2.42;1.40;;;;;;;11.85;86.92;96238.66;4984663;28;20054;-77
2021/10/06 01:57:22;;;;;;;4.32;1.92;;;;;;;11.85;87.26;96233.22;4984927;28;20050;-77
2021/10/06 01:59:50;;;;;;;4.80;1.80;;;;;;;11.80;87.23;96240.72;4985316;28;20639;-77
2021/10/06 02:02:17;;;;;;;2.28;1.50;;;;;;;11.76;87.03;96241.38;4984533;28;20054;-77
2021/10/06 02:04:44;;;;;;;4.88;1.58;;;;;;;11.76;86.92;96241.38;4985492;28;20521;-78
2021/10/06 02:07:11;;;;;;;2.60;1.40;;;;;;;11.78;86.49;96238.31;4984151;28;20050;-77
2021/10/06 02:09:37;;;;;;;2.38;1.38;;;;;;;11.80;86.65;96243.44;4985371;28;20046;-77
2021/10/06 02:12:04;;;;;;;3.15;1.10;;;;;;;11.79;86.08;96250.03;4984508;28;20066;-77
2021/10/06 02:14:32;;;;;;;2.58;1.60;;;;;;;11.75;85.99;96241.72;4985011;28;20464;-78
2021/10/06 02:16:58;;;;;;;3.33;1.20;;;;;;;11.75;86.39;96244.47;4985284;28;20058;-77
2021/10/06 02:19:24;;;;;;;6.07;2.40;;;;;;;11.75;86.56;96239.78;4983234;28;20046;-77
2021/10/06 02:21:51;;;;;;;1.95;1.10;;;;;;;11.80;85.86;96243.44;4984926;28;20058;-77
2021/10/06 02:24:17;;;;;;;3.17;1.77;;;;;;;11.84;86.33;96247.16;4966921;28;20062;-77
2021/10/06 02:26:44;;;;;;;2.60;1.52;;;;;;;11.84;86.13;96253.41;4965661;28;20486;-78
2021/10/06 02:29:10;;;;;;;5.38;1.58;;;;;;;11.87;85.98;96251.97;4964083;28;20058;-76
2021/10/06 02:31:38;;;;;;;6.53;1.83;;;;;;;11.87;86.07;96257.44;4970829;28;20050;-77
2021/10/06 02:34:04;;;;;;;2.92;1.50;;;;;;;11.88;86.27;96268.00;4983258;28;20050;-77
2021/10/06 02:36:31;;;;;;;2.75;1.85;;;;;;;11.92;86.17;96265.44;4984657;28;20058;-77
2021/10/06 02:38:57;;;;;;;3.67;1.65;;;;;;;11.93;85.35;96265.09;4984286;28;20073;-78
2021/10/06 02:41:24;;;;;;;3.60;1.83;;;;;;;11.95;85.66;96253.84;4985578;28;20075;-78
2021/10/06 02:43:50;;;;;;;4.28;1.60;;;;;;;11.94;85.33;96253.03;4987982;28;20054;-77
2021/10/06 02:46:17;;;;;;;7.57;2.28;;;;;;;11.97;84.89;96254.31;4987473;28;20062;-77
2021/10/06 02:48:44;;;;;;;3.70;1.40;;;;;;;11.98;85.13;96255.91;4988194;28;20463;-77
2021/10/06 02:51:11;;;;;;;5.68;1.48;;;;;;;11.96;84.32;96258.19;4986678;28;20057;-78
2021/10/06 02:53:38;;;;;;;2.58;1.10;;;;;;;11.98;84.29;96258.66;4988499;28;20055;-77
2021/10/06 02:56:05;;;;;;;4.03;1.42;;;;;;;11.96;84.34;96266.38;4986542;28;20143;-78
2021/10/06 02:58:31;;;;;;;3.55;1.40;;;;;;;11.91;83.74;96261.09;4988588;28;20046;-77
2021/10/06 03:00:57;;;;;;;6.32;1.35;;;;;;;11.95;83.87;96264.75;4987442;28;20073;-77
2021/10/06 03:03:24;;;;;;;2.90;1.60;;;;;;;11.95;83.39;96264.75;4987732;28;20508;-78
2021/10/06 03:05:52;;;;;;;2.42;1.45;;;;;;;11.96;83.02;96260.91;4987680;28;20053;-77
2021/10/06 03:08:19;;;;;;;4.68;1.70;;;;;;;11.97;83.55;96265.25;4987439;28;20088;-78
2021/10/06 03:10:45;;;;;;;3.17;1.40;;;;;;;11.99;83.19;96266.50;4987637;28;20057;-77
2021/10/06 03:13:12;;;;;;;3.53;1.73;;;;;;;12.00;83.03;96267.28;4986929;28;20055;-77
2021/10/06 03:15:38;;;;;;;1.17;1.08;;;;;;;12.01;82.88;96277.09;4987814;28;20053;-77
2021/10/06 03:18:05;;;;;;;4.90;1.48;;;;;;;12.00;83.34;96272.75;4986493;28;20504;-77
2021/10/06 03:20:31;;;;;;;4.03;1.20;;;;;;;11.99;82.96;96282.06;4984913;28;20421;-77
2021/10/06 03:22:59;;;;;;;4.65;1.40;;;;;;;11.98;83.04;96283.22;4986619;28;20053;-77
2021/10/06 03:25:25;;;;;;;2.45;1.45;;;;;;;11.97;83.32;96278.88;4986859;28;20053;-77
2021/10/06 03:27:52;;;;;;;4.95;1.27;;;;;;;11.97;82.81;96284.34;4986781;28;20531;-77
2021/10/06 03:30:18;;;;;;;2.97;1.30;;;;;;;11.95;82.76;96283.84;4986352;28;20054;-77
2021/10/06 03:32:44;;;;;;;4.68;1.63;;;;;;;11.96;83.06;96285.47;4987006;28;20099;-77
2021/10/06 03:35:11;;;;;;;5.78;1.50;;;;;;;11.90;82.93;96284.03;4986338;28;20070;-77
2021/10/06 03:37:38;;;;;;;3.55;1.20;;;;;;;11.87;83.12;96284.72;4987416;28;20042;-77
2021/10/06 03:40:08;;;;;;;3.28;1.20;;;;;;;11.77;82.79;96278.44;4985593;28;20050;-78
2021/10/06 03:42:34;;;;;;;2.25;1.02;;;;;;;11.73;82.92;96274.78;4987685;28;20050;-77
2021/10/06 03:45:01;;;;;;;2.80;1.05;;;;;;;11.66;82.31;96285.41;4986432;28;20480;-77
2021/10/06 03:47:27;;;;;;;3.95;1.08;;;;;;;11.62;82.43;96289.91;4987358;28;20042;-78
2021/10/06 03:49:54;;;;;;;1.80;0.80;;;;;;;11.61;82.71;96296.47;4985979;28;20043;-78
2021/10/06 03:52:20;;;;;;;3.30;1.05;;;;;;;11.63;83.25;96301.59;4986200;28;20073;-77
2021/10/06 03:54:47;;;;;;;4.55;1.63;;;;;;;11.64;82.61;96304.03;4972937;28;20802;-78
2021/10/06 03:57:15;;;;;;;2.35;1.20;;;;;;;11.63;82.93;96305.13;4966048;28;20112;-78
2021/10/06 03:59:41;;;;;;;2.13;1.40;;;;;;;11.62;82.75;96310.91;4966310;28;20120;-77
2021/10/06 04:02:08;;;;;;;3.22;1.30;;;;;;;11.64;82.74;96314.09;4975834;28;20050;-76
2021/10/06 04:04:34;;;;;;;3.88;1.27;;;;;;;11.66;83.31;96314.59;4986947;28;20050;-77
2021/10/06 04:07:00;;;;;;;3.58;1.45;;;;;;;11.65;83.50;96316.53;4986535;28;20053;-77
2021/10/06 04:09:27;;;;;;;2.90;1.55;;;;;;;11.58;83.32;96321.66;4987023;28;20046;-77
2021/10/06 04:11:53;;;;;;;3.08;1.20;;;;;;;11.57;83.55;96330.97;4986220;28;20054;-77
2021/10/06 04:14:21;;;;;;;5.45;2.00;;;;;;;11.53;83.21;96329.22;4986548;28;20050;-78
2021/10/06 04:16:47;;;;;;;2.13;1.50;;;;;;;11.50;82.80;96336.13;4985370;28;20043;-77
2021/10/06 04:19:14;;;;;;;4.18;1.33;;;;;;;11.43;82.60;96336.63;4985767;28;20103;-77
2021/10/06 04:21:40;;;;;;;3.45;1.42;;;;;;;11.47;83.52;96347.69;4986350;28;20054;-77
2021/10/06 04:24:07;;;;;;;4.00;1.40;;;;;;;11.43;82.83;96338.53;4985760;28;20054;-77
2021/10/06 04:26:33;;;;;;;5.30;1.58;;;;;;;11.39;83.01;96343.84;4986851;28;20054;-77
2021/10/06 04:29:00;;;;;;;5.00;1.42;;;;;;;11.37;81.70;96343.34;4985856;28;20499;-76
2021/10/06 04:31:28;;;;;;;4.38;1.35;;;;;;;11.39;81.84;96337.59;4986678;28;20113;-77
2021/10/06 04:33:54;;;;;;;3.00;1.10;;;;;;;11.38;81.71;96344.16;4985642;28;20054;-77
2021/10/06 04:36:21;;;;;;;5.40;1.60;;;;;;;11.29;81.48;96351.56;4985227;28;20053;-77
2021/10/06 04:38:47;;;;;;;2.50;0.90;;;;;;;11.27;82.32;96351.06;4985771;28;20050;-76
2021/10/06 04:41:14;;;;;;;3.90;1.85;;;;;;;11.26;81.90;96352.19;4985949;28;20058;-76
2021/10/06 04:43:40;;;;;;;6.18;1.60;;;;;;;11.24;82.15;96350.59;4985307;28;20100;-76
2021/10/06 04:46:07;;;;;;;5.13;1.63;;;;;;;11.24;82.24;96358.78;4985143;28;20068;-76
2021/10/06 04:48:35;;;;;;;4.25;1.30;;;;;;;11.19;81.79;96358.94;4986286;28;20046;-77
2021/10/06 04:51:01;;;;;;;5.95;1.60;;;;;;;11.16;81.96;96351.41;4984389;28;20058;-77
2021/10/06 04:53:28;;;;;;;5.28;1.92;;;;;;;11.13;82.79;96357.50;4984454;28;20050;-77
2021/10/06 04:55:54;;;;;;;6.50;1.40;;;;;;;11.09;83.15;96359.28;4984481;28;20062;-77
2021/10/06 04:58:21;;;;;;;3.67;1.20;;;;;;;11.07;83.12;96356.06;4986130;28;20050;-77
2021/10/06 05:00:47;;;;;;;1.85;1.33;;;;;;;11.04;83.38;96364.88;4985375;28;20053;-76
2021/10/06 05:03:15;;;;;;;4.10;1.30;;;;;;;10.95;83.73;96361.34;4985794;28;20062;-78
2021/10/06 05:05:44;;;;;;;5.95;1.40;;;;;;;10.90;83.61;96367.75;4985379;28;20042;-76
2021/10/06 05:08:10;;;;;;;8.48;1.85;;;;;;;10.87;83.36;96373.06;4985484;28;20070;-77
2021/10/06 05:10:37;;;;;;;3.78;1.45;;;;;;;10.81;83.20;96377.06;4985856;28;20058;-76
2021/10/06 05:13:04;;;;;;;4.45;1.40;;;;;;;10.77;83.43;96373.34;4984963;28;20061;-76
2021/10/06 05:15:30;;;;;;;3.58;1.60;;;;;;;10.81;83.58;96377.06;4986182;28;20061;-77
2021/10/06 05:17:57;;;;;;;4.45;2.22;;;;;;;10.78;83.79;96380.41;4985004;28;20051;-77
2021/10/06 05:20:24;;;;;;;2.88;1.38;;;;;;;10.78;83.81;96375.75;4985474;28;20057;-77
2021/10/06 05:22:52;;;;;;;5.70;1.75;;;;;;;10.84;84.00;96385.38;4984498;28;20489;-77
2021/10/06 05:25:20;;;;;;;5.50;1.73;;;;;;;10.90;84.13;96388.75;4985020;28;20509;-76
2021/10/06 05:27:47;;;;;;;4.95;1.67;;;;;;;10.93;83.59;96388.91;4985065;28;20059;-76
2021/10/06 05:30:14;;;;;;;3.40;1.55;;;;;;;10.91;82.59;96395.78;4985097;28;20057;-76
2021/10/06 05:32:41;;;;;;;3.85;1.27;;;;;;;10.91;82.82;96396.63;4985313;28;20501;-76
2021/10/06 05:35:08;;;;;;;2.40;1.10;;;;;;;10.93;82.62;96409.91;4985566;28;20050;-76
2021/10/06 05:37:35;;;;;;;3.80;1.20;;;;;;;10.95;82.94;96405.72;4986022;28;20054;-75
2021/10/06 05:40:03;;;;;;;3.88;2.05;;;;;;;10.96;82.74;96409.25;4984387;28;20050;-73
2021/10/06 05:42:30;;;;;;;5.03;1.60;;;;;;;10.96;82.55;96411.97;4986098;28;20049;-74
2021/10/06 05:44:56;;;;;;;4.57;1.33;;;;;;;10.96;82.59;96423.72;4984624;28;20077;-74
2021/10/06 05:47:23;;;;;;;4.47;1.70;;;;;;;10.96;82.75;96425.59;4985401;28;20046;-74
2021/10/06 05:49:50;;;;;;;4.35;1.30;;;;;;;10.95;83.05;96429.44;4984560;28;20050;-74
2021/10/06 05:52:16;;;;;;;3.65;1.40;;;;;;;10.95;82.75;96432.19;4985183;28;20054;-74
2021/10/06 05:54:43;;;;;;;2.50;1.10;;;;;;;10.94;83.12;96428.66;4984730;28;20066;-74
2021/10/06 05:57:10;;;;;;;3.13;1.40;;;;;;;10.95;83.26;96435.69;4984598;28;20062;-75
2021/10/06 05:59:37;;;;;;;4.32;1.30;;;;;;;10.90;83.72;96437.78;4985314;28;20061;-74
2021/10/06 06:02:03;;;;;;;3.67;1.70;;;;;;;10.87;84.12;96446.59;4984487;28;20055;-74
2021/10/06 06:04:30;;;;;;;2.65;1.33;;;;;;;10.81;84.87;96450.59;4985512;28;20050;-74
2021/10/06 06:06:57;;;;;;;4.97;1.88;;;;;;;10.77;84.93;96446.91;4984550;28;20054;-74
2021/10/06 06:09:23;;;;;;;2.33;1.23;;;;;;;10.71;84.91;96452.50;4985363;28;20538;-74
2021/10/06 06:11:51;;;;;;;4.95;1.48;;;;;;;10.72;85.64;96458.75;4984731;28;20058;-73
2021/10/06 06:14:19;;;;;;;3.33;1.42;;;;;;;10.71;85.57;96452.50;4984863;28;20058;-74
2021/10/06 06:16:46;;;;;;;2.42;1.20;;;;;;;10.71;85.54;96454.41;4986499;28;20053;-74
2021/10/06 06:19:12;;;;;;;3.55;1.27;;;;;;;10.74;85.94;96455.69;4988022;28;20127;-75
2021/10/06 06:21:40;;;;;;;8.18;1.50;;;;;;;10.76;85.74;96469.81;4988778;28;20042;-74
2021/10/06 06:24:07;;;;;;;5.05;1.88;;;;;;;10.73;85.18;96464.97;4987168;28;20137;-74
2021/10/06 06:26:33;;;;;;;4.88;1.40;;;;;;;10.73;84.80;96462.25;4988626;28;20046;-74
2021/10/06 06:29:00;;;;;;;6.07;1.55;;;;;;;10.73;84.91;96470.44;4987872;28;20057;-74
2021/10/06 06:31:28;;;;;;;4.25;1.20;;;;;;;10.78;85.26;96473.00;4988366;28;20814;-75
2021/10/06 06:33:54;;;;;;;3.53;1.30;;;;;;;10.77;84.97;96488.56;4987258;28;20058;-74
2021/10/06 06:36:20;;;;;;;3.88;1.60;;;;;;;10.78;84.66;96483.91;4988549;28;20054;-74
2021/10/06 06:38:47;;;;;;;5.88;1.80;;;;;;;10.83;84.19;96486.50;4987328;28;20051;-75
2021/10/06 06:41:13;;;;;;;3.38;1.52;;;;;;;10.83;84.45;96486.50;4987764;28;20057;-74
2021/10/06 06:43:40;;;;;;;7.45;1.98;;;;;;;10.83;84.60;96487.28;4970682;28;20077;-74
2021/10/06 06:46:06;;;;;;;1.70;1.00;;;;;;;10.74;84.41;96493.81;4968281;28;20089;-74
2021/10/06 06:48:34;;;;;;;4.65;1.63;;;;;;;10.74;84.50;96496.53;4968867;28;20050;-75
2021/10/06 06:51:01;;;;;;;5.65;1.70;;;;;;;10.71;84.83;96501.50;4987132;28;20058;-75
2021/10/06 06:53:28;;;;;;;2.30;1.05;;;;;;;10.68;84.34;96507.59;4987801;28;20064;-74
2021/10/06 06:55:54;;;;;;;3.47;0.90;;;;;;;10.68;84.18;96507.59;4987047;28;20066;-75
2021/10/06 06:58:21;;;;;;;3.33;1.42;;;;;;;10.68;85.00;96513.03;4987660;28;20050;-74
2021/10/06 07:00:49;;;;;;;1.45;1.23;;;;;;;10.65;84.42;96513.69;4987444;28;20073;-76
2021/10/06 07:03:15;;;;;;;4.68;1.42;;;;;;;10.62;83.84;96508.84;4987586;28;20463;-76
2021/10/06 07:05:43;;;;;;;2.83;1.15;;;;;;;10.66;84.07;96514.47;4987571;28;20066;-76
2021/10/06 07:08:09;;;;;;;4.10;1.65;;;;;;;10.57;83.25;96506.25;4987820;28;20065;-75
2021/10/06 07:10:36;;;;;;;2.55;1.00;;;;;;;10.53;83.23;96505.28;4988397;28;20408;-75
2021/10/06 07:13:03;;;;;;;4.00;1.30;;;;;;;10.52;84.12;96513.75;4986900;28;20050;-74
2021/10/06 07:15:30;;;;;;;3.20;1.10;;;;;;;10.54;84.42;96506.88;4987853;28;20046;-75
2021/10/06 07:17:57;;;;;;;4.75;1.50;;;;;;;10.56;84.71;96521.00;4986822;28;20063;-74
2021/10/06 07:20:24;;;;;;;2.05;1.00;;;;;;;10.60;84.77;96526.63;4987670;28;20057;-76
2021/10/06 07:22:52;;;;;;;1.77;0.95;;;;;;;10.59;84.42;96533.16;4986826;28;20096;-74
2021/10/06 07:25:19;;;;;;;2.83;1.30;;;;;;;10.59;84.95;96531.25;4987275;28;20310;-75
2021/10/06 07:27:46;;;;;;;4.80;1.10;;;;;;;10.55;84.58;96533.00;4987018;28;20528;-74
2021/10/06 07:30:13;;;;;;;3.33;1.00;;;;;;;10.52;84.83;96535.53;4986914;28;20069;-75
2021/10/06 07:32:40;;;;;;;2.67;1.33;;;;;;;10.57;84.92;96535.41;4987156;28;20409;-76
2021/10/06 07:35:08;;;;;;;2.25;0.80;;;;;;;10.63;84.99;96534.16;4986848;28;20047;-75
2021/10/06 07:37:34;;;;;;;2.10;1.00;;;;;;;10.65;84.08;96535.47;4987619;28;20053;-75
2021/10/06 07:40:02;;;;;;;3.45;1.30;;;;;;;10.67;83.87;96537.84;4986969;28;20055;-74
2021/10/06 07:42:29;;;;;;;4.40;1.17;;;;;;;10.70;83.50;96538.03;4987528;28;20053;-75
2021/10/06 07:44:58;;;;;;;2.15;1.20;;;;;;;10.75;83.11;96537.06;4986623;28;20070;-75
2021/10/06 07:47:25;;;;;;;2.47;1.00;;;;;;;10.84;83.27;96542.56;4987196;28;20084;-75
2021/10/06 07:49:51;;;;;;;2.53;0.98;;;;;;;10.91;82.88;96542.91;4986181;28;20062;-75
2021/10/06 07:52:18;;;;;;;3.25;1.05;;;;;;;11.00;83.04;96543.75;4986664;28;20046;-75
2021/10/06 07:54:44;;;;;;;3.63;1.00;;;;;;;11.04;82.19;96547.44;4986595;28;20073;-75
2021/10/06 07:57:12;;;;;;;3.15;1.25;;;;;;;11.09;80.59;96544.59;4986463;28;20050;-75
2021/10/06 07:59:38;;;;;;;3.10;1.17;;;;;;;11.17;81.77;96545.72;4986898;28;20051;-75
2021/10/06 08:02:05;;;;;;;3.67;1.10;;;;;;;11.18;81.80;96548.13;4986578;28;20050;-75
2021/10/06 08:04:31;;;;;;;3.63;1.27;;;;;;;11.23;80.77;96545.25;4986957;28;20409;-75
2021/10/06 08:06:58;;;;;;;2.53;0.90;;;;;;;11.24;79.13;96549.59;4986466;28;20497;-74
2021/10/06 08:09:24;;;;;;;2.42;0.90;;;;;;;11.29;78.92;96551.38;4986788;28;20057;-74
2021/10/06 08:11:51;;;;;;;2.65;0.82;;;;;;;11.41;79.76;96548.03;4986630;28;20461;-75
2021/10/06 08:14:19;;;;;;;7.75;0.98;;;;;;;11.60;78.93;96553.19;4986489;28;20054;-74
2021/10/06 08:16:45;;;;;;;2.72;0.95;;;;;;;11.64;76.54;96560.41;4986684;28;20046;-76
2021/10/06 08:19:12;;;;;;;3.78;1.30;;;;;;;11.65;76.57;96551.09;4985910;28;20050;-75
2021/10/06 08:21:38;;;;;;;3.72;1.30;;;;;;;11.67;76.79;96554.31;4986579;28;20054;-74
2021/10/06 08:24:05;;;;;;;3.15;1.20;;;;;;;11.74;75.71;96560.09;4986043;28;20061;-76
2021/10/06 08:26:32;;;;;;;3.58;0.82;;;;;;;11.81;74.68;96558.81;4986543;28;20805;-75
2021/10/06 08:28:58;;;;;;;4.97;1.65;;;;;;;11.89;74.36;96560.75;4985715;28;20050;-75
2021/10/06 08:31:26;;;;;;;2.33;0.90;;;;;;;11.97;74.34;96557.25;4986147;28;20054;-74
2021/10/06 08:33:53;;;;;;;3.50;1.20;;;;;;;12.01;73.57;96558.22;4985584;28;20062;-74
2021/10/06 08:36:19;;;;;;;3.47;1.27;;;;;;;11.89;73.32;96549.84;4986598;28;20054;-74
2021/10/06 08:38:46;;;;;;;3.65;1.02;;;;;;;12.03;74.22;96550.50;4984982;28;20077;-75
2021/10/06 08:41:12;;;;;;;5.05;1.30;;;;;;;12.22;73.75;96559.16;4986174;28;20074;-75
2021/10/06 08:43:40;;;;;;;7.80;1.33;;;;;;;12.33;73.60;96558.81;4986078;28;20058;-75
2021/10/06 08:46:06;;;;;;;3.83;1.13;;;;;;;12.27;73.89;96558.97;4985876;28;20103;-75
2021/10/06 08:48:34;;;;;;;2.75;1.00;;;;;;;12.39;72.73;96569.22;4985773;28;20077;-75
2021/10/06 08:51:01;;;;;;;2.80;1.08;;;;;;;12.57;73.32;96559.06;4985337;28;20062;-76
2021/10/06 08:53:27;;;;;;;4.70;1.13;;;;;;;12.53;69.63;96563.59;4985742;28;20046;-75
2021/10/06 08:55:54;;;;;;;3.55;1.15;;;;;;;12.54;70.77;96570.66;4985241;28;20505;-76
2021/10/06 08:58:20;;;;;;;2.85;1.10;;;;;;;12.72;73.35;96577.66;4986193;28;20046;-74
2021/10/06 09:00:55;;;;;;;5.93;1.30;;;;;;;12.89;72.50;96573.25;4985722;28;20077;-74
2021/10/06 09:03:26;;;;;;;5.72;1.05;;;;;;;13.05;71.49;96574.34;4985751;28;20122;-75
2021/10/06 09:06:06;;;;;;;2.15;1.10;;;;;;;13.13;71.05;96576.22;4986036;28;20057;-75
2021/10/06 09:08:33;;;;;;;3.25;1.13;;;;;;;13.19;70.23;96580.38;4985542;28;20074;-74
2021/10/06 09:11:01;;;;;;;3.90;1.30;;;;;;;13.27;69.78;96576.84;4986072;28;20513;-75
2021/10/06 09:13:29;;;;;;;3.78;1.27;;;;;;;13.27;68.43;96574.09;4985724;28;20069;-75
2021/10/06 09:15:56;;;;;;;3.28;1.33;;;;;;;13.28;69.33;96572.97;4986253;28;20057;-75
2021/10/06 09:18:25;;;;;;;2.88;1.20;;;;;;;13.45;70.70;96577.53;4984828;28;20126;-75
2021/10/06 09:20:52;;;;;;;4.50;1.10;;;;;;;13.61;70.81;96572.28;4986070;28;20413;-75
2021/10/06 09:23:21;;;;;;;3.35;0.70;;;;;;;13.75;69.19;96581.06;4984934;28;20065;-74
2021/10/06 09:25:50;;;;;;;3.58;1.02;;;;;;;13.84;66.62;96579.06;4986142;28;20053;-75
2021/10/06 09:28:22;;;;;;;3.10;0.98;;;;;;;13.87;68.34;96587.72;4985860;28;20051;-75
2021/10/06 09:30:53;;;;;;;2.70;0.98;;;;;;;13.90;68.05;96584.34;4985390;28;20433;-75
2021/10/06 09:33:19;;;;;;;3.42;1.20;;;;;;;13.91;66.85;96588.66;4985362;28;20077;-75
2021/10/06 09:35:46;;;;;;;2.45;0.90;;;;;;;14.00;67.60;96592.16;4985070;28;20149;-75
2021/10/06 09:38:12;;;;;;;3.40;1.20;;;;;;;14.08;66.45;96597.53;4985856;28;20050;-75
2021/10/06 09:40:40;;;;;;;2.53;1.20;;;;;;;13.99;63.00;96596.00;4984732;28;20050;-75
2021/10/06 09:43:06;;;;;;;3.00;0.88;;;;;;;13.82;64.83;96597.72;4985679;28;20061;-74
2021/10/06 09:45:35;;;;;;;3.28;1.02;;;;;;;13.69;67.48;96604.28;4984757;28;20129;-74
2021/10/06 09:48:08;;;;;;;1.65;0.80;;;;;;;13.80;66.30;96604.69;4985589;28;20061;-72
2021/10/06 09:50:39;;;;;;;3.78;0.85;;;;;;;13.90;64.84;96598.81;4982924;28;20050;-75
2021/10/06 09:53:13;;;;;;;3.83;1.02;;;;;;;13.91;63.54;96605.09;4988386;28;20056;-74
2021/10/06 09:55:43;;;;;;;3.03;0.90;;;;;;;14.02;65.17;96606.28;4988705;28;20082;-75
2021/10/06 09:58:11;;;;;;;4.63;1.00;;;;;;;14.13;64.13;96615.72;4987826;28;20043;-75
2021/10/06 10:00:40;;;;;;;4.07;1.42;;;;;;;14.14;62.05;96620.03;4989362;28;20050;-75
2021/10/06 10:03:07;;;;;;;2.30;0.98;;;;;;;14.04;61.26;96613.06;4988427;28;20062;-74
2021/10/06 10:05:36;;;;;;;5.18;1.30;;;;;;;13.82;61.24;96616.91;4989266;28;20052;-75
2021/10/06 10:08:03;;;;;;;4.28;0.80;;;;;;;13.77;62.92;96621.75;4988007;28;20059;-74
2021/10/06 10:10:31;;;;;;;2.85;0.68;;;;;;;13.64;62.27;96620.88;4988614;28;20065;-75
2021/10/06 10:13:00;;;;;;;2.70;0.90;;;;;;;13.56;63.04;96621.72;4988790;28;20057;-75
2021/10/06 10:15:27;;;;;;;4.45;0.90;;;;;;;13.52;64.10;96626.25;4987546;28;20061;-74
2021/10/06 10:17:54;;;;;;;3.40;0.80;;;;;;;13.62;63.48;96614.94;4988953;28;20058;-75
2021/10/06 10:20:22;;;;;;;6.15;1.27;;;;;;;13.81;60.77;96623.50;4987205;28;20133;-74
2021/10/06 10:22:50;;;;;;;3.20;0.75;;;;;;;13.79;62.80;96620.31;4984594;28;20046;-75
2021/10/06 10:25:25;;;;;;;3.50;1.05;;;;;;;13.71;62.26;96621.16;4967959;28;20055;-75
2021/10/06 10:28:06;;;;;;;5.07;1.92;;;;;;;13.66;62.32;96615.88;4969197;28;20477;-75
2021/10/06 10:30:35;;;;;;;3.10;0.80;;;;;;;13.61;62.45;96618.81;4968786;28;20058;-75
2021/10/06 10:33:02;;;;;;;3.55;1.25;;;;;;;13.59;64.27;96615.59;4984661;28;20409;-72
2021/10/06 10:35:34;;;;;;;5.15;1.00;;;;;;;13.67;64.06;96611.19;4988445;28;20406;-74
2021/10/06 10:38:05;;;;;;;5.65;1.65;;;;;;;13.74;64.85;96612.28;4987484;28;20055;-75
2021/10/06 10:40:35;;;;;;;5.68;1.83;;;;;;;13.82;63.21;96616.91;4988407;28;20050;-74
2021/10/06 10:43:06;;;;;;;5.75;1.63;;;;;;;14.00;63.40;96608.59;4987130;28;20050;-72
2021/10/06 10:45:38;;;;;;;3.47;1.10;;;;;;;14.23;61.81;96607.09;4988840;28;20050;-74
2021/10/06 10:48:05;;;;;;;4.50;1.20;;;;;;;14.31;59.06;96603.50;4987469;28;20057;-75
2021/10/06 10:50:40;;;;;;;2.25;1.10;;;;;;;14.48;61.29;96609.97;4988011;28;20050;-75
2021/10/06 10:53:08;;;;;;;3.75;1.25;;;;;;;14.67;61.79;96606.72;4987365;28;20046;-75
2021/10/06 10:55:46;;;;;;;7.03;1.90;;;;;;;14.44;59.92;96606.28;4987884;28;20091;-75
2021/10/06 10:58:28;;;;;;;4.90;0.80;;;;;;;14.24;58.88;96611.44;4987835;28;20146;-74
2021/10/06 11:00:55;;;;;;;2.92;0.75;;;;;;;13.97;59.74;96607.28;4987024;28;20596;-75
2021/10/06 11:03:22;;;;;;;2.22;0.82;;;;;;;13.87;61.15;96612.38;4987400;28;20057;-75
2021/10/06 11:05:49;;;;;;;2.58;0.77;;;;;;;13.69;58.60;96608.94;4987361;28;20460;-75
2021/10/06 11:08:24;;;;;;;1.83;0.70;;;;;;;13.48;57.11;96597.97;4987215;28;20365;-75
2021/10/06 11:11:31;;;;;;;2.55;0.70;;;;;;;13.29;56.87;96601.91;4987877;28;20133;-75
2021/10/06 11:14:19;;;;;;;3.10;0.90;;;;;;;13.36;59.50;96600.59;4986816;28;20050;-75
2021/10/06 11:17:07;;;;;;;4.10;1.38;;;;;;;13.28;60.67;96600.31;4987532;28;20046;-75
2021/10/06 11:19:41;;;;;;;2.35;1.17;;;;;;;13.15;62.72;96601.28;4984594;28;20103;-76
2021/10/06 11:22:40;;;;;;;3.88;0.98;;;;;;;13.06;63.17;96606.81;4986620;28;20463;-75
2021/10/06 11:25:08;;;;;;;2.13;1.00;;;;;;;13.04;63.74;96589.94;4987897;28;20054;-75
2021/10/06 11:27:45;;;;;;;2.85;1.10;;;;;;;13.11;64.49;96602.31;4986931;28;20390;-75
2021/10/06 11:30:16;;;;;;;4.30;1.10;;;;;;;13.12;63.23;96601.97;4987245;28;20054;-74
2021/10/06 11:32:46;;;;;;;4.07;0.93;;;;;;;13.07;64.32;96605.69;4986838;28;20047;-75
2021/10/06 11:35:13;;;;;;;1.60;0.95;;;;;;;13.20;64.38;96603.84;4986936;28;20054;-74
2021/10/06 11:37:39;;;;;;;2.58;0.93;;;;;;;13.38;62.47;96603.81;4987300;28;20057;-75